sensor_id;sensor_type;location;lat;lon;timestamp;P1;durP1;ratioP1;P2;durP2;ratioP2
8001;SDS011;4046;48.774;8.732;2023-04-24T00:00:54;1.30;;;0.70;;
8001;SDS011;4046;48.774;8.732;2023-04-24T00:03:26;1.20;;;0.80;;
8001;SDS011;4046;48.774;8.732;2023-04-24T00:05:53;1.20;;;0.77;;
8001;SDS011;4046;48.774;8.732;2023-04-24T00:08:20;1.10;;;0.60;;
8001;SDS011;4046;48.774;8.732;2023-04-24T00:10:48;1.70;;;0.70;;
8001;SDS011;4046;48.774;8.732;2023-04-24T00:13:14;1.20;;;0.73;;
8001;SDS011;4046;48.774;8.732;2023-04-24T00:15:40;1.73;;;0.80;;
8001;SDS011;4046;48.774;8.732;2023-04-24T00:18:06;1.17;;;0.70;;
8001;SDS011;4046;48.774;8.732;2023-04-24T00:20:32;1.20;;;0.70;;
8001;SDS011;4046;48.774;8.732;2023-04-24T00:23:01;1.20;;;0.70;;
8001;SDS011;4046;48.774;8.732;2023-04-24T00:25:27;1.10;;;0.67;;
8001;SDS011;4046;48.774;8.732;2023-04-24T00:27:53;1.10;;;0.70;;
8001;SDS011;4046;48.774;8.732;2023-04-24T00:30:19;1.40;;;0.70;;
8001;SDS011;4046;48.774;8.732;2023-04-24T00:32:46;1.10;;;0.70;;
8001;SDS011;4046;48.774;8.732;2023-04-24T00:35:12;1.30;;;0.80;;
8001;SDS011;4046;48.774;8.732;2023-04-24T00:37:38;1.30;;;0.70;;
8001;SDS011;4046;48.774;8.732;2023-04-24T00:40:05;1.30;;;0.80;;
8001;SDS011;4046;48.774;8.732;2023-04-24T00:42:31;1.20;;;0.80;;
8001;SDS011;4046;48.774;8.732;2023-04-24T00:44:58;1.23;;;0.80;;
8001;SDS011;4046;48.774;8.732;2023-04-24T00:47:26;1.20;;;0.70;;
8001;SDS011;4046;48.774;8.732;2023-04-24T00:49:53;1.10;;;0.60;;
8001;SDS011;4046;48.774;8.732;2023-04-24T00:52:20;1.10;;;0.73;;
8001;SDS011;4046;48.774;8.732;2023-04-24T00:54:49;1.20;;;0.80;;
8001;SDS011;4046;48.774;8.732;2023-04-24T00:57:16;1.10;;;0.70;;
8001;SDS011;4046;48.774;8.732;2023-04-24T00:59:43;1.20;;;0.80;;
8001;SDS011;4046;48.774;8.732;2023-04-24T01:02:09;1.10;;;0.60;;
8001;SDS011;4046;48.774;8.732;2023-04-24T01:04:38;1.10;;;0.60;;
8001;SDS011;4046;48.774;8.732;2023-04-24T01:07:05;1.30;;;0.77;;
8001;SDS011;4046;48.774;8.732;2023-04-24T01:09:38;1.10;;;0.63;;
8001;SDS011;4046;48.774;8.732;2023-04-24T01:12:06;1.23;;;0.70;;
8001;SDS011;4046;48.774;8.732;2023-04-24T01:14:33;1.10;;;0.80;;
8001;SDS011;4046;48.774;8.732;2023-04-24T01:16:59;1.17;;;0.70;;
8001;SDS011;4046;48.774;8.732;2023-04-24T01:19:25;1.20;;;0.70;;
8001;SDS011;4046;48.774;8.732;2023-04-24T01:21:53;1.20;;;0.70;;
8001;SDS011;4046;48.774;8.732;2023-04-24T01:24:23;1.30;;;0.70;;
8001;SDS011;4046;48.774;8.732;2023-04-24T01:26:49;1.10;;;0.70;;
8001;SDS011;4046;48.774;8.732;2023-04-24T01:29:15;1.10;;;0.60;;
8001;SDS011;4046;48.774;8.732;2023-04-24T01:31:42;1.10;;;0.60;;
8001;SDS011;4046;48.774;8.732;2023-04-24T01:34:08;1.43;;;0.80;;
8001;SDS011;4046;48.774;8.732;2023-04-24T01:36:35;1.20;;;0.70;;
8001;SDS011;4046;48.774;8.732;2023-04-24T01:39:01;1.10;;;0.70;;
8001;SDS011;4046;48.774;8.732;2023-04-24T01:41:29;1.10;;;0.60;;
8001;SDS011;4046;48.774;8.732;2023-04-24T01:43:56;1.10;;;0.60;;
8001;SDS011;4046;48.774;8.732;2023-04-24T01:46:23;1.10;;;0.60;;
8001;SDS011;4046;48.774;8.732;2023-04-24T01:48:50;1.23;;;0.73;;
8001;SDS011;4046;48.774;8.732;2023-04-24T01:51:17;1.17;;;0.60;;
8001;SDS011;4046;48.774;8.732;2023-04-24T01:53:44;1.10;;;0.70;;
8001;SDS011;4046;48.774;8.732;2023-04-24T01:56:10;1.10;;;0.60;;
8001;SDS011;4046;48.774;8.732;2023-04-24T01:58:37;1.10;;;0.70;;
8001;SDS011;4046;48.774;8.732;2023-04-24T02:01:03;1.10;;;0.77;;
8001;SDS011;4046;48.774;8.732;2023-04-24T02:03:32;1.10;;;0.70;;
8001;SDS011;4046;48.774;8.732;2023-04-24T02:05:58;1.10;;;0.67;;
8001;SDS011;4046;48.774;8.732;2023-04-24T02:08:24;1.53;;;0.63;;
8001;SDS011;4046;48.774;8.732;2023-04-24T02:10:50;1.10;;;0.60;;
8001;SDS011;4046;48.774;8.732;2023-04-24T02:13:17;1.10;;;0.67;;
8001;SDS011;4046;48.774;8.732;2023-04-24T02:15:43;1.10;;;0.60;;
8001;SDS011;4046;48.774;8.732;2023-04-24T02:18:09;1.10;;;0.70;;
8001;SDS011;4046;48.774;8.732;2023-04-24T02:20:36;1.10;;;0.60;;
8001;SDS011;4046;48.774;8.732;2023-04-24T02:23:03;1.10;;;0.60;;
8001;SDS011;4046;48.774;8.732;2023-04-24T02:25:29;1.10;;;0.63;;
8001;SDS011;4046;48.774;8.732;2023-04-24T02:27:55;1.30;;;0.70;;
8001;SDS011;4046;48.774;8.732;2023-04-24T02:30:22;1.20;;;0.60;;
8001;SDS011;4046;48.774;8.732;2023-04-24T02:32:48;1.10;;;0.70;;
8001;SDS011;4046;48.774;8.732;2023-04-24T02:35:14;1.20;;;0.70;;
8001;SDS011;4046;48.774;8.732;2023-04-24T02:37:41;1.10;;;0.70;;
8001;SDS011;4046;48.774;8.732;2023-04-24T02:40:07;1.80;;;0.67;;
8001;SDS011;4046;48.774;8.732;2023-04-24T02:42:34;1.20;;;0.70;;
8001;SDS011;4046;48.774;8.732;2023-04-24T02:45:00;1.10;;;0.70;;
8001;SDS011;4046;48.774;8.732;2023-04-24T02:47:26;1.10;;;0.70;;
8001;SDS011;4046;48.774;8.732;2023-04-24T02:49:53;1.23;;;0.70;;
8001;SDS011;4046;48.774;8.732;2023-04-24T02:52:19;1.10;;;0.70;;
8001;SDS011;4046;48.774;8.732;2023-04-24T02:54:45;1.20;;;0.73;;
8001;SDS011;4046;48.774;8.732;2023-04-24T02:57:12;1.10;;;0.60;;
8001;SDS011;4046;48.774;8.732;2023-04-24T02:59:38;1.20;;;0.60;;
8001;SDS011;4046;48.774;8.732;2023-04-24T03:02:04;1.10;;;0.70;;
8001;SDS011;4046;48.774;8.732;2023-04-24T03:04:31;1.20;;;0.80;;
8001;SDS011;4046;48.774;8.732;2023-04-24T03:06:57;1.10;;;0.70;;
8001;SDS011;4046;48.774;8.732;2023-04-24T03:09:24;1.10;;;0.60;;
8001;SDS011;4046;48.774;8.732;2023-04-24T03:11:50;1.10;;;0.60;;
8001;SDS011;4046;48.774;8.732;2023-04-24T03:14:16;1.10;;;0.67;;
8001;SDS011;4046;48.774;8.732;2023-04-24T03:16:43;1.10;;;0.60;;
8001;SDS011;4046;48.774;8.732;2023-04-24T03:19:09;1.50;;;0.60;;
8001;SDS011;4046;48.774;8.732;2023-04-24T03:21:35;1.10;;;0.70;;
8001;SDS011;4046;48.774;8.732;2023-04-24T03:24:09;1.10;;;0.60;;
8001;SDS011;4046;48.774;8.732;2023-04-24T03:26:35;1.20;;;0.70;;
8001;SDS011;4046;48.774;8.732;2023-04-24T03:29:01;1.20;;;0.60;;
8001;SDS011;4046;48.774;8.732;2023-04-24T03:31:27;1.17;;;0.70;;
8001;SDS011;4046;48.774;8.732;2023-04-24T03:33:53;1.27;;;0.80;;
8001;SDS011;4046;48.774;8.732;2023-04-24T03:36:20;1.20;;;0.80;;
8001;SDS011;4046;48.774;8.732;2023-04-24T03:38:46;1.10;;;0.70;;
8001;SDS011;4046;48.774;8.732;2023-04-24T03:41:12;1.10;;;0.70;;
8001;SDS011;4046;48.774;8.732;2023-04-24T03:43:38;1.10;;;0.60;;
8001;SDS011;4046;48.774;8.732;2023-04-24T03:46:05;1.10;;;0.60;;
8001;SDS011;4046;48.774;8.732;2023-04-24T03:48:31;1.20;;;0.70;;
8001;SDS011;4046;48.774;8.732;2023-04-24T03:50:57;1.10;;;0.70;;
8001;SDS011;4046;48.774;8.732;2023-04-24T03:53:23;1.10;;;0.60;;
8001;SDS011;4046;48.774;8.732;2023-04-24T03:55:50;1.10;;;0.60;;
8001;SDS011;4046;48.774;8.732;2023-04-24T03:58:16;1.13;;;0.70;;
8001;SDS011;4046;48.774;8.732;2023-04-24T04:00:43;1.10;;;0.60;;
8001;SDS011;4046;48.774;8.732;2023-04-24T04:03:10;1.60;;;0.60;;
8001;SDS011;4046;48.774;8.732;2023-04-24T04:05:36;1.20;;;0.60;;
8001;SDS011;4046;48.774;8.732;2023-04-24T04:08:02;1.20;;;0.60;;
8001;SDS011;4046;48.774;8.732;2023-04-24T04:10:29;1.30;;;0.60;;
8001;SDS011;4046;48.774;8.732;2023-04-24T04:12:55;1.10;;;0.60;;
8001;SDS011;4046;48.774;8.732;2023-04-24T04:15:21;1.10;;;0.80;;
8001;SDS011;4046;48.774;8.732;2023-04-24T04:17:47;1.37;;;0.77;;
8001;SDS011;4046;48.774;8.732;2023-04-24T04:20:13;1.47;;;0.70;;
8001;SDS011;4046;48.774;8.732;2023-04-24T04:22:40;1.20;;;0.60;;
8001;SDS011;4046;48.774;8.732;2023-04-24T04:25:06;1.20;;;0.70;;
8001;SDS011;4046;48.774;8.732;2023-04-24T04:27:33;1.10;;;0.60;;
8001;SDS011;4046;48.774;8.732;2023-04-24T04:30:01;1.10;;;0.67;;
8001;SDS011;4046;48.774;8.732;2023-04-24T04:32:33;1.10;;;0.67;;
8001;SDS011;4046;48.774;8.732;2023-04-24T04:35:00;1.10;;;0.60;;
8001;SDS011;4046;48.774;8.732;2023-04-24T04:37:30;1.10;;;0.60;;
8001;SDS011;4046;48.774;8.732;2023-04-24T04:39:58;1.17;;;0.70;;
8001;SDS011;4046;48.774;8.732;2023-04-24T04:42:26;1.10;;;0.70;;
8001;SDS011;4046;48.774;8.732;2023-04-24T04:44:56;1.10;;;0.60;;
8001;SDS011;4046;48.774;8.732;2023-04-24T04:47:22;1.10;;;0.60;;
8001;SDS011;4046;48.774;8.732;2023-04-24T04:49:49;1.10;;;0.60;;
8001;SDS011;4046;48.774;8.732;2023-04-24T04:52:17;1.10;;;0.60;;
8001;SDS011;4046;48.774;8.732;2023-04-24T04:54:44;1.20;;;0.67;;
8001;SDS011;4046;48.774;8.732;2023-04-24T04:57:10;1.17;;;0.70;;
8001;SDS011;4046;48.774;8.732;2023-04-24T04:59:37;1.10;;;0.70;;
8001;SDS011;4046;48.774;8.732;2023-04-24T05:02:03;1.20;;;0.60;;
8001;SDS011;4046;48.774;8.732;2023-04-24T05:04:30;1.10;;;0.70;;
8001;SDS011;4046;48.774;8.732;2023-04-24T05:06:56;1.23;;;0.70;;
8001;SDS011;4046;48.774;8.732;2023-04-24T05:09:22;1.20;;;0.70;;
8001;SDS011;4046;48.774;8.732;2023-04-24T05:11:49;1.20;;;0.70;;
8001;SDS011;4046;48.774;8.732;2023-04-24T05:14:15;1.20;;;0.70;;
8001;SDS011;4046;48.774;8.732;2023-04-24T05:16:43;1.10;;;0.50;;
8001;SDS011;4046;48.774;8.732;2023-04-24T05:19:09;1.20;;;0.70;;
8001;SDS011;4046;48.774;8.732;2023-04-24T05:21:37;1.10;;;0.60;;
8001;SDS011;4046;48.774;8.732;2023-04-24T05:24:05;1.27;;;0.67;;
8001;SDS011;4046;48.774;8.732;2023-04-24T05:26:31;1.10;;;0.70;;
8001;SDS011;4046;48.774;8.732;2023-04-24T05:28:58;1.13;;;0.73;;
8001;SDS011;4046;48.774;8.732;2023-04-24T05:31:24;1.10;;;0.60;;
8001;SDS011;4046;48.774;8.732;2023-04-24T05:33:51;1.10;;;0.60;;
8001;SDS011;4046;48.774;8.732;2023-04-24T05:36:17;1.10;;;0.70;;
8001;SDS011;4046;48.774;8.732;2023-04-24T05:38:43;1.10;;;0.60;;
8001;SDS011;4046;48.774;8.732;2023-04-24T05:41:09;1.10;;;0.63;;
8001;SDS011;4046;48.774;8.732;2023-04-24T05:43:38;1.10;;;0.70;;
8001;SDS011;4046;48.774;8.732;2023-04-24T05:46:04;1.10;;;0.80;;
8001;SDS011;4046;48.774;8.732;2023-04-24T05:48:30;1.23;;;0.67;;
8001;SDS011;4046;48.774;8.732;2023-04-24T05:50:57;1.20;;;0.70;;
8001;SDS011;4046;48.774;8.732;2023-04-24T05:53:23;1.17;;;0.70;;
8001;SDS011;4046;48.774;8.732;2023-04-24T05:55:49;1.30;;;0.80;;
8001;SDS011;4046;48.774;8.732;2023-04-24T05:58:15;1.20;;;0.70;;
8001;SDS011;4046;48.774;8.732;2023-04-24T06:00:42;1.20;;;0.80;;
8001;SDS011;4046;48.774;8.732;2023-04-24T06:03:09;1.10;;;0.80;;
8001;SDS011;4046;48.774;8.732;2023-04-24T06:05:36;1.30;;;0.90;;
8001;SDS011;4046;48.774;8.732;2023-04-24T06:08:02;1.10;;;0.63;;
8001;SDS011;4046;48.774;8.732;2023-04-24T06:10:28;1.20;;;0.67;;
8001;SDS011;4046;48.774;8.732;2023-04-24T06:12:55;1.20;;;0.87;;
8001;SDS011;4046;48.774;8.732;2023-04-24T06:15:27;1.10;;;0.70;;
8001;SDS011;4046;48.774;8.732;2023-04-24T06:17:54;1.10;;;0.60;;
8001;SDS011;4046;48.774;8.732;2023-04-24T06:20:21;1.17;;;0.73;;
8001;SDS011;4046;48.774;8.732;2023-04-24T06:22:47;1.20;;;0.80;;
8001;SDS011;4046;48.774;8.732;2023-04-24T06:25:14;1.40;;;0.80;;
8001;SDS011;4046;48.774;8.732;2023-04-24T06:27:40;1.10;;;0.70;;
8001;SDS011;4046;48.774;8.732;2023-04-24T06:30:06;1.10;;;0.70;;
8001;SDS011;4046;48.774;8.732;2023-04-24T06:32:33;1.10;;;0.70;;
8001;SDS011;4046;48.774;8.732;2023-04-24T06:34:59;1.10;;;0.70;;
8001;SDS011;4046;48.774;8.732;2023-04-24T06:37:25;1.10;;;0.60;;
8001;SDS011;4046;48.774;8.732;2023-04-24T06:39:52;1.20;;;0.70;;
8001;SDS011;4046;48.774;8.732;2023-04-24T06:42:18;1.20;;;0.80;;
8001;SDS011;4046;48.774;8.732;2023-04-24T06:44:46;1.10;;;0.60;;
8001;SDS011;4046;48.774;8.732;2023-04-24T06:47:12;1.93;;;0.77;;
8001;SDS011;4046;48.774;8.732;2023-04-24T06:49:41;1.63;;;0.70;;
8001;SDS011;4046;48.774;8.732;2023-04-24T06:52:08;1.10;;;0.70;;
8001;SDS011;4046;48.774;8.732;2023-04-24T06:54:35;1.20;;;0.70;;
8001;SDS011;4046;48.774;8.732;2023-04-24T06:57:01;1.20;;;0.80;;
8001;SDS011;4046;48.774;8.732;2023-04-24T06:59:28;1.13;;;0.73;;
8001;SDS011;4046;48.774;8.732;2023-04-24T07:01:55;1.20;;;0.70;;
8001;SDS011;4046;48.774;8.732;2023-04-24T07:04:22;1.10;;;0.70;;
8001;SDS011;4046;48.774;8.732;2023-04-24T07:06:50;1.20;;;0.70;;
8001;SDS011;4046;48.774;8.732;2023-04-24T07:09:16;1.20;;;0.80;;
8001;SDS011;4046;48.774;8.732;2023-04-24T07:11:44;1.20;;;0.70;;
8001;SDS011;4046;48.774;8.732;2023-04-24T07:14:11;1.20;;;0.97;;
8001;SDS011;4046;48.774;8.732;2023-04-24T07:16:37;1.10;;;0.70;;
8001;SDS011;4046;48.774;8.732;2023-04-24T07:19:04;1.60;;;0.70;;
8001;SDS011;4046;48.774;8.732;2023-04-24T07:21:31;1.20;;;0.80;;
8001;SDS011;4046;48.774;8.732;2023-04-24T07:23:57;1.10;;;0.70;;
8001;SDS011;4046;48.774;8.732;2023-04-24T07:26:24;1.17;;;0.83;;
8001;SDS011;4046;48.774;8.732;2023-04-24T07:28:52;1.20;;;0.90;;
8001;SDS011;4046;48.774;8.732;2023-04-24T07:31:18;1.20;;;0.80;;
8001;SDS011;4046;48.774;8.732;2023-04-24T07:33:45;1.20;;;0.80;;
8001;SDS011;4046;48.774;8.732;2023-04-24T07:36:11;1.20;;;0.70;;
8001;SDS011;4046;48.774;8.732;2023-04-24T07:38:44;1.20;;;0.80;;
8001;SDS011;4046;48.774;8.732;2023-04-24T07:41:17;1.20;;;0.80;;
8001;SDS011;4046;48.774;8.732;2023-04-24T07:43:44;1.30;;;0.73;;
8001;SDS011;4046;48.774;8.732;2023-04-24T07:46:11;1.20;;;0.80;;
8001;SDS011;4046;48.774;8.732;2023-04-24T07:48:37;1.10;;;0.70;;
8001;SDS011;4046;48.774;8.732;2023-04-24T07:51:03;1.10;;;0.70;;
8001;SDS011;4046;48.774;8.732;2023-04-24T07:53:30;1.10;;;0.80;;
8001;SDS011;4046;48.774;8.732;2023-04-24T07:55:56;1.20;;;0.87;;
8001;SDS011;4046;48.774;8.732;2023-04-24T07:58:22;1.50;;;0.80;;
8001;SDS011;4046;48.774;8.732;2023-04-24T08:00:49;1.20;;;0.77;;
8001;SDS011;4046;48.774;8.732;2023-04-24T08:03:16;1.30;;;0.80;;
8001;SDS011;4046;48.774;8.732;2023-04-24T08:05:45;1.30;;;0.80;;
8001;SDS011;4046;48.774;8.732;2023-04-24T08:08:11;1.50;;;0.90;;
8001;SDS011;4046;48.774;8.732;2023-04-24T08:10:37;1.10;;;0.80;;
8001;SDS011;4046;48.774;8.732;2023-04-24T08:13:03;1.30;;;0.70;;
8001;SDS011;4046;48.774;8.732;2023-04-24T08:15:30;2.00;;;1.00;;
8001;SDS011;4046;48.774;8.732;2023-04-24T08:17:56;1.20;;;0.80;;
8001;SDS011;4046;48.774;8.732;2023-04-24T08:20:23;1.20;;;0.73;;
8001;SDS011;4046;48.774;8.732;2023-04-24T08:22:49;1.50;;;1.03;;
8001;SDS011;4046;48.774;8.732;2023-04-24T08:25:15;1.20;;;0.90;;
8001;SDS011;4046;48.774;8.732;2023-04-24T08:27:42;1.13;;;0.90;;
8001;SDS011;4046;48.774;8.732;2023-04-24T08:30:09;1.30;;;0.90;;
8001;SDS011;4046;48.774;8.732;2023-04-24T08:32:36;1.30;;;0.90;;
8001;SDS011;4046;48.774;8.732;2023-04-24T08:35:03;1.30;;;1.10;;
8001;SDS011;4046;48.774;8.732;2023-04-24T08:37:29;1.10;;;0.80;;
8001;SDS011;4046;48.774;8.732;2023-04-24T08:39:56;1.27;;;0.90;;
8001;SDS011;4046;48.774;8.732;2023-04-24T08:42:22;1.20;;;0.80;;
8001;SDS011;4046;48.774;8.732;2023-04-24T08:44:49;1.17;;;0.80;;
8001;SDS011;4046;48.774;8.732;2023-04-24T08:47:15;1.10;;;0.90;;
8001;SDS011;4046;48.774;8.732;2023-04-24T08:49:42;1.20;;;0.83;;
8001;SDS011;4046;48.774;8.732;2023-04-24T08:52:08;1.30;;;1.00;;
8001;SDS011;4046;48.774;8.732;2023-04-24T08:54:35;1.20;;;0.93;;
8001;SDS011;4046;48.774;8.732;2023-04-24T08:57:03;1.10;;;0.77;;
8001;SDS011;4046;48.774;8.732;2023-04-24T08:59:30;1.10;;;0.80;;
8001;SDS011;4046;48.774;8.732;2023-04-24T09:01:57;1.30;;;1.10;;
8001;SDS011;4046;48.774;8.732;2023-04-24T09:04:24;1.77;;;1.00;;
8001;SDS011;4046;48.774;8.732;2023-04-24T09:06:51;1.40;;;1.00;;
8001;SDS011;4046;48.774;8.732;2023-04-24T09:09:22;1.20;;;0.90;;
8001;SDS011;4046;48.774;8.732;2023-04-24T09:11:49;1.20;;;0.90;;
8001;SDS011;4046;48.774;8.732;2023-04-24T09:14:16;1.70;;;1.00;;
8001;SDS011;4046;48.774;8.732;2023-04-24T09:16:43;1.30;;;0.93;;
8001;SDS011;4046;48.774;8.732;2023-04-24T09:19:09;1.20;;;0.90;;
8001;SDS011;4046;48.774;8.732;2023-04-24T09:21:35;1.20;;;1.00;;
8001;SDS011;4046;48.774;8.732;2023-04-24T09:24:03;1.63;;;1.00;;
8001;SDS011;4046;48.774;8.732;2023-04-24T09:26:31;1.30;;;1.10;;
8001;SDS011;4046;48.774;8.732;2023-04-24T09:28:58;1.10;;;0.80;;
8001;SDS011;4046;48.774;8.732;2023-04-24T09:31:26;1.20;;;0.90;;
8001;SDS011;4046;48.774;8.732;2023-04-24T09:33:54;1.30;;;1.00;;
8001;SDS011;4046;48.774;8.732;2023-04-24T09:36:29;1.20;;;0.93;;
8001;SDS011;4046;48.774;8.732;2023-04-24T09:38:59;1.20;;;0.80;;
8001;SDS011;4046;48.774;8.732;2023-04-24T09:41:26;1.30;;;1.03;;
8001;SDS011;4046;48.774;8.732;2023-04-24T09:43:53;1.30;;;1.00;;
8001;SDS011;4046;48.774;8.732;2023-04-24T09:46:21;1.30;;;1.10;;
8001;SDS011;4046;48.774;8.732;2023-04-24T09:48:54;1.20;;;0.97;;
8001;SDS011;4046;48.774;8.732;2023-04-24T09:51:32;1.20;;;0.93;;
8001;SDS011;4046;48.774;8.732;2023-04-24T09:54:02;1.27;;;0.90;;
8001;SDS011;4046;48.774;8.732;2023-04-24T09:56:32;1.30;;;1.07;;
8001;SDS011;4046;48.774;8.732;2023-04-24T09:59:05;1.40;;;1.00;;
8001;SDS011;4046;48.774;8.732;2023-04-24T10:01:32;1.77;;;0.80;;
8001;SDS011;4046;48.774;8.732;2023-04-24T10:03:59;1.40;;;1.00;;
8001;SDS011;4046;48.774;8.732;2023-04-24T10:06:35;1.30;;;0.90;;
8001;SDS011;4046;48.774;8.732;2023-04-24T10:09:02;1.10;;;0.80;;
8001;SDS011;4046;48.774;8.732;2023-04-24T10:11:29;1.20;;;0.80;;
8001;SDS011;4046;48.774;8.732;2023-04-24T10:13:56;1.20;;;0.90;;
8001;SDS011;4046;48.774;8.732;2023-04-24T10:16:23;1.17;;;0.90;;
8001;SDS011;4046;48.774;8.732;2023-04-24T10:18:49;1.23;;;1.10;;
8001;SDS011;4046;48.774;8.732;2023-04-24T10:21:16;1.20;;;0.90;;
8001;SDS011;4046;48.774;8.732;2023-04-24T10:23:43;1.20;;;0.90;;
8001;SDS011;4046;48.774;8.732;2023-04-24T10:26:12;1.20;;;0.90;;
8001;SDS011;4046;48.774;8.732;2023-04-24T10:28:44;1.20;;;0.90;;
8001;SDS011;4046;48.774;8.732;2023-04-24T10:31:11;1.20;;;0.90;;
8001;SDS011;4046;48.774;8.732;2023-04-24T10:33:43;1.47;;;0.90;;
8001;SDS011;4046;48.774;8.732;2023-04-24T10:36:11;1.20;;;0.90;;
8001;SDS011;4046;48.774;8.732;2023-04-24T10:38:40;1.27;;;0.93;;
8001;SDS011;4046;48.774;8.732;2023-04-24T10:41:12;1.17;;;0.90;;
8001;SDS011;4046;48.774;8.732;2023-04-24T10:43:45;1.40;;;1.10;;
8001;SDS011;4046;48.774;8.732;2023-04-24T10:46:16;1.20;;;0.93;;
8001;SDS011;4046;48.774;8.732;2023-04-24T10:48:55;1.27;;;0.90;;
8001;SDS011;4046;48.774;8.732;2023-04-24T10:51:22;1.20;;;1.00;;
8001;SDS011;4046;48.774;8.732;2023-04-24T10:53:50;1.20;;;1.00;;
8001;SDS011;4046;48.774;8.732;2023-04-24T10:56:17;1.20;;;1.00;;
8001;SDS011;4046;48.774;8.732;2023-04-24T10:58:45;1.20;;;0.90;;
8001;SDS011;4046;48.774;8.732;2023-04-24T11:01:24;1.20;;;0.90;;
8001;SDS011;4046;48.774;8.732;2023-04-24T11:03:56;1.60;;;1.00;;
8001;SDS011;4046;48.774;8.732;2023-04-24T11:06:30;1.20;;;1.00;;
8001;SDS011;4046;48.774;8.732;2023-04-24T11:09:02;1.33;;;1.00;;
8001;SDS011;4046;48.774;8.732;2023-04-24T11:11:33;1.30;;;1.10;;
8001;SDS011;4046;48.774;8.732;2023-04-24T11:14:01;1.30;;;1.00;;
8001;SDS011;4046;48.774;8.732;2023-04-24T11:16:43;1.13;;;0.80;;
8001;SDS011;4046;48.774;8.732;2023-04-24T11:24:29;1.20;;;0.90;;
8001;SDS011;4046;48.774;8.732;2023-04-24T11:27:15;1.20;;;0.90;;
8001;SDS011;4046;48.774;8.732;2023-04-24T11:29:49;1.30;;;1.00;;
8001;SDS011;4046;48.774;8.732;2023-04-24T11:32:28;1.13;;;0.87;;
8001;SDS011;4046;48.774;8.732;2023-04-24T11:34:55;1.60;;;1.10;;
8001;SDS011;4046;48.774;8.732;2023-04-24T11:37:42;1.20;;;0.90;;
8001;SDS011;4046;48.774;8.732;2023-04-24T11:40:17;1.20;;;0.90;;
8001;SDS011;4046;48.774;8.732;2023-04-24T11:42:49;1.30;;;0.93;;
8001;SDS011;4046;48.774;8.732;2023-04-24T11:45:18;1.20;;;0.90;;
8001;SDS011;4046;48.774;8.732;2023-04-24T11:47:48;1.30;;;1.00;;
8001;SDS011;4046;48.774;8.732;2023-04-24T11:50:15;1.20;;;1.00;;
8001;SDS011;4046;48.774;8.732;2023-04-24T11:52:44;1.33;;;0.90;;
8001;SDS011;4046;48.774;8.732;2023-04-24T11:55:33;1.30;;;0.93;;
8001;SDS011;4046;48.774;8.732;2023-04-24T11:57:59;1.40;;;0.90;;
8001;SDS011;4046;48.774;8.732;2023-04-24T12:00:27;1.20;;;0.90;;
8001;SDS011;4046;48.774;8.732;2023-04-24T12:03:05;1.30;;;1.00;;
8001;SDS011;4046;48.774;8.732;2023-04-24T12:05:35;1.20;;;0.90;;
8001;SDS011;4046;48.774;8.732;2023-04-24T12:08:01;1.50;;;0.90;;
8001;SDS011;4046;48.774;8.732;2023-04-24T12:10:28;1.70;;;0.90;;
8001;SDS011;4046;48.774;8.732;2023-04-24T12:12:56;1.20;;;1.00;;
8001;SDS011;4046;48.774;8.732;2023-04-24T12:15:24;1.30;;;1.10;;
8001;SDS011;4046;48.774;8.732;2023-04-24T12:17:51;1.20;;;0.90;;
8001;SDS011;4046;48.774;8.732;2023-04-24T12:20:23;1.20;;;0.90;;
8001;SDS011;4046;48.774;8.732;2023-04-24T12:22:51;1.17;;;0.80;;
8001;SDS011;4046;48.774;8.732;2023-04-24T12:25:21;1.30;;;1.10;;
8001;SDS011;4046;48.774;8.732;2023-04-24T12:27:55;1.20;;;0.97;;
8001;SDS011;4046;48.774;8.732;2023-04-24T12:30:41;1.20;;;0.80;;
8001;SDS011;4046;48.774;8.732;2023-04-24T12:33:20;1.47;;;0.90;;
8001;SDS011;4046;48.774;8.732;2023-04-24T12:35:48;1.20;;;1.00;;
8001;SDS011;4046;48.774;8.732;2023-04-24T12:38:21;1.20;;;0.90;;
8001;SDS011;4046;48.774;8.732;2023-04-24T12:41:00;1.20;;;0.93;;
8001;SDS011;4046;48.774;8.732;2023-04-24T12:43:31;1.13;;;0.90;;
8001;SDS011;4046;48.774;8.732;2023-04-24T12:45:57;1.30;;;1.00;;
8001;SDS011;4046;48.774;8.732;2023-04-24T12:48:25;1.30;;;0.90;;
8001;SDS011;4046;48.774;8.732;2023-04-24T12:50:52;1.20;;;0.90;;
8001;SDS011;4046;48.774;8.732;2023-04-24T12:53:18;1.40;;;0.80;;
8001;SDS011;4046;48.774;8.732;2023-04-24T12:55:44;1.40;;;0.90;;
8001;SDS011;4046;48.774;8.732;2023-04-24T12:58:12;1.10;;;0.80;;
8001;SDS011;4046;48.774;8.732;2023-04-24T13:00:38;1.30;;;1.07;;
8001;SDS011;4046;48.774;8.732;2023-04-24T13:03:05;1.20;;;0.90;;
8001;SDS011;4046;48.774;8.732;2023-04-24T13:05:31;1.10;;;0.80;;
8001;SDS011;4046;48.774;8.732;2023-04-24T13:07:58;1.20;;;0.73;;
8001;SDS011;4046;48.774;8.732;2023-04-24T13:10:24;1.30;;;0.90;;
8001;SDS011;4046;48.774;8.732;2023-04-24T13:12:50;1.50;;;0.73;;
8001;SDS011;4046;48.774;8.732;2023-04-24T13:15:16;1.10;;;0.80;;
8001;SDS011;4046;48.774;8.732;2023-04-24T13:17:42;1.93;;;0.90;;
8001;SDS011;4046;48.774;8.732;2023-04-24T13:20:09;1.27;;;0.97;;
8001;SDS011;4046;48.774;8.732;2023-04-24T13:22:35;1.33;;;0.90;;
8001;SDS011;4046;48.774;8.732;2023-04-24T13:25:02;1.20;;;0.93;;
8001;SDS011;4046;48.774;8.732;2023-04-24T13:27:31;1.40;;;1.00;;
8001;SDS011;4046;48.774;8.732;2023-04-24T13:29:57;1.27;;;1.17;;
8001;SDS011;4046;48.774;8.732;2023-04-24T13:32:24;1.20;;;0.93;;
8001;SDS011;4046;48.774;8.732;2023-04-24T13:34:50;1.30;;;0.87;;
8001;SDS011;4046;48.774;8.732;2023-04-24T13:37:17;1.20;;;1.00;;
8001;SDS011;4046;48.774;8.732;2023-04-24T13:39:43;1.10;;;0.80;;
8001;SDS011;4046;48.774;8.732;2023-04-24T13:42:09;1.20;;;0.90;;
8001;SDS011;4046;48.774;8.732;2023-04-24T13:44:37;1.20;;;1.03;;
8001;SDS011;4046;48.774;8.732;2023-04-24T13:47:03;1.83;;;0.97;;
8001;SDS011;4046;48.774;8.732;2023-04-24T13:49:29;1.20;;;0.90;;
8001;SDS011;4046;48.774;8.732;2023-04-24T13:51:56;1.10;;;0.80;;
8001;SDS011;4046;48.774;8.732;2023-04-24T13:54:22;1.20;;;1.00;;
8001;SDS011;4046;48.774;8.732;2023-04-24T13:56:51;1.20;;;0.80;;
8001;SDS011;4046;48.774;8.732;2023-04-24T13:59:18;1.20;;;0.90;;
8001;SDS011;4046;48.774;8.732;2023-04-24T14:01:46;1.20;;;0.90;;
8001;SDS011;4046;48.774;8.732;2023-04-24T14:04:13;1.20;;;0.80;;
8001;SDS011;4046;48.774;8.732;2023-04-24T14:06:39;1.20;;;1.10;;
8001;SDS011;4046;48.774;8.732;2023-04-24T14:09:05;1.97;;;1.03;;
8001;SDS011;4046;48.774;8.732;2023-04-24T14:11:32;1.20;;;0.93;;
8001;SDS011;4046;48.774;8.732;2023-04-24T14:13:59;1.13;;;0.90;;
8001;SDS011;4046;48.774;8.732;2023-04-24T14:16:25;1.40;;;0.90;;
8001;SDS011;4046;48.774;8.732;2023-04-24T14:18:51;1.20;;;0.97;;
8001;SDS011;4046;48.774;8.732;2023-04-24T14:21:18;1.60;;;0.83;;
8001;SDS011;4046;48.774;8.732;2023-04-24T14:23:44;1.17;;;0.90;;
8001;SDS011;4046;48.774;8.732;2023-04-24T14:26:11;1.27;;;1.00;;
8001;SDS011;4046;48.774;8.732;2023-04-24T14:28:37;1.10;;;0.80;;
8001;SDS011;4046;48.774;8.732;2023-04-24T14:31:03;1.20;;;0.87;;
8001;SDS011;4046;48.774;8.732;2023-04-24T14:33:30;1.40;;;0.90;;
8001;SDS011;4046;48.774;8.732;2023-04-24T14:35:56;1.30;;;1.10;;
8001;SDS011;4046;48.774;8.732;2023-04-24T14:38:22;1.20;;;0.80;;
8001;SDS011;4046;48.774;8.732;2023-04-24T14:40:49;1.20;;;0.90;;
8001;SDS011;4046;48.774;8.732;2023-04-24T14:43:15;1.20;;;0.90;;
8001;SDS011;4046;48.774;8.732;2023-04-24T14:45:41;1.83;;;1.00;;
8001;SDS011;4046;48.774;8.732;2023-04-24T14:48:07;1.20;;;1.00;;
8001;SDS011;4046;48.774;8.732;2023-04-24T14:50:34;1.43;;;1.00;;
8001;SDS011;4046;48.774;8.732;2023-04-24T14:53:01;1.23;;;1.00;;
8001;SDS011;4046;48.774;8.732;2023-04-24T14:55:27;1.20;;;0.90;;
8001;SDS011;4046;48.774;8.732;2023-04-24T14:57:54;1.20;;;0.80;;
8001;SDS011;4046;48.774;8.732;2023-04-24T15:00:21;1.20;;;0.90;;
8001;SDS011;4046;48.774;8.732;2023-04-24T15:02:49;1.13;;;0.90;;
8001;SDS011;4046;48.774;8.732;2023-04-24T15:05:15;1.10;;;0.80;;
8001;SDS011;4046;48.774;8.732;2023-04-24T15:07:41;1.70;;;1.00;;
8001;SDS011;4046;48.774;8.732;2023-04-24T15:10:07;1.20;;;0.90;;
8001;SDS011;4046;48.774;8.732;2023-04-24T15:12:34;1.20;;;0.90;;
8001;SDS011;4046;48.774;8.732;2023-04-24T15:15:00;1.20;;;0.90;;
8001;SDS011;4046;48.774;8.732;2023-04-24T15:17:27;1.83;;;1.00;;
8001;SDS011;4046;48.774;8.732;2023-04-24T15:19:53;1.20;;;1.00;;
8001;SDS011;4046;48.774;8.732;2023-04-24T15:22:19;1.20;;;0.90;;